createdAt,value
2022-07-30T00:05:22.257Z,77.59
2022-07-30T00:11:27.660Z,77.10
2022-07-30T00:17:30.143Z,78.02
2022-07-30T00:23:34.186Z,78.37
2022-07-30T00:29:36.153Z,78.88
2022-07-30T00:35:46.902Z,79.48
2022-07-30T00:42:02.600Z,80.28
2022-07-30T00:48:05.064Z,81.92
2022-07-30T00:54:07.476Z,82.91
2022-07-30T01:00:14.119Z,84.25
2022-07-30T01:06:16.160Z,84.62
2022-07-30T01:12:23.629Z,84.06
2022-07-30T01:18:49.373Z,83.74
2022-07-30T01:25:31.999Z,83.83
2022-07-30T01:31:34.797Z,85.71
2022-07-30T01:37:38.479Z,87.58
2022-07-30T01:43:41.577Z,89.55
2022-07-30T01:49:47.297Z,90.70
2022-07-30T01:55:51.522Z,91.61
2022-07-30T02:01:53.592Z,91.66
2022-07-30T02:08:15.901Z,91.85
2022-07-30T02:14:49.535Z,92.85
2022-07-30T02:21:07.496Z,93.77
2022-07-30T02:27:27.727Z,95.38
2022-07-30T02:33:48.791Z,96.00
2022-07-30T02:39:53.271Z,96.45
2022-07-30T02:45:55.819Z,96.38
2022-07-30T02:51:59.778Z,96.71
2022-07-30T02:58:05.707Z,96.53
2022-07-30T03:04:09.057Z,96.32
2022-07-30T03:10:13.449Z,96.16
2022-07-30T03:16:19.787Z,96.75
2022-07-30T03:22:29.977Z,97.11
2022-07-30T03:28:39.567Z,96.46
2022-07-30T03:34:42.617Z,97.60
2022-07-30T03:40:46.738Z,98.23
2022-07-30T03:46:52.327Z,98.20
2022-07-30T03:52:55.169Z,99.22
2022-07-30T03:58:57.233Z,98.86
2022-07-30T04:04:59.217Z,99.60
2022-07-30T04:11:01.233Z,99.83
2022-07-30T04:17:08.427Z,100.00
2022-07-30T04:23:11.969Z,100.00
2022-07-30T04:29:18.267Z,100.00
2022-07-30T04:35:51.408Z,100.00
2022-07-30T04:41:53.258Z,99.62
2022-07-30T04:47:55.352Z,100.00
2022-07-30T04:53:59.104Z,100.00
2022-07-30T05:00:01.330Z,100.00
2022-07-30T05:06:05.174Z,100.00
2022-07-30T05:12:08.034Z,100.00
2022-07-30T05:18:10.706Z,100.00
2022-07-30T05:24:12.998Z,100.00
2022-07-30T05:30:15.004Z,100.00
2022-07-30T05:36:16.981Z,100.00
2022-07-30T05:42:18.937Z,100.00
2022-07-30T05:48:20.932Z,99.96
2022-07-30T05:54:23.810Z,99.50
2022-07-30T06:00:27.014Z,99.29
2022-07-30T06:06:29.014Z,99.20
2022-07-30T06:12:31.517Z,99.73
2022-07-30T06:18:33.536Z,99.49
2022-07-30T06:24:35.671Z,100.00
2022-07-30T06:30:37.784Z,99.63
2022-07-30T06:36:39.728Z,98.98
2022-07-30T06:42:41.667Z,97.81
2022-07-30T06:48:44.202Z,97.03
2022-07-30T06:54:47.716Z,97.26
2022-07-30T07:00:49.754Z,96.97
2022-07-30T07:06:51.978Z,96.78
2022-07-30T07:12:54.376Z,95.62
2022-07-30T07:18:56.697Z,97.35
2022-07-30T07:24:58.669Z,98.59
2022-07-30T07:31:00.944Z,96.55
2022-07-30T07:37:03.370Z,97.79
2022-07-30T07:43:05.631Z,96.91
2022-07-30T07:49:07.689Z,90.91
2022-07-30T07:55:10.703Z,87.18
2022-07-30T08:01:12.831Z,85.05
2022-07-30T08:07:14.977Z,81.62
2022-07-30T08:13:48.082Z,77.21
2022-07-30T08:19:39.060Z,72.80
2022-07-30T08:25:41.071Z,73.11
2022-07-30T08:31:43.175Z,74.37
2022-07-30T08:37:45.179Z,74.31
2022-07-30T08:43:50.133Z,75.95
2022-07-30T08:49:52.931Z,77.67
2022-07-30T08:55:58.607Z,78.62
2022-07-30T09:02:01.046Z,79.92
2022-07-30T09:08:07.225Z,81.45
2022-07-30T09:14:14.192Z,80.81
2022-07-30T09:20:17.161Z,79.72
2022-07-30T09:26:19.130Z,79.31
2022-07-30T09:32:21.120Z,79.49
2022-07-30T09:38:24.007Z,78.41
2022-07-30T09:44:29.735Z,76.44
2022-07-30T09:50:31.753Z,76.20
2022-07-30T09:56:33.750Z,74.30
2022-07-30T10:02:36.425Z,74.01
2022-07-30T10:08:50.919Z,71.44
2022-07-30T10:14:55.116Z,68.51
2022-07-30T10:20:57.880Z,62.65
2022-07-30T10:27:05.921Z,61.89
2022-07-30T10:33:08.951Z,60.91
2022-07-30T10:39:47.114Z,56.90
2022-07-30T10:46:20.161Z,50.40
2022-07-30T10:52:51.907Z,54.53
2022-07-30T10:59:08.450Z,52.62
2022-07-30T11:05:44.066Z,50.13
2022-07-30T11:11:59.595Z,47.62
2022-07-30T11:18:12.823Z,47.44
2022-07-30T11:24:47.384Z,49.42
2022-07-30T11:30:53.687Z,47.02
2022-07-30T11:37:18.685Z,43.85
2022-07-30T11:43:35.900Z,44.29
2022-07-30T11:49:38.831Z,42.66
2022-07-30T11:55:47.699Z,42.35
2022-07-30T12:01:52.316Z,41.98
2022-07-30T12:07:59.202Z,39.20
2022-07-30T12:14:02.585Z,42.19
2022-07-30T12:20:17.762Z,40.64
2022-07-30T12:26:30.579Z,38.82
2022-07-30T12:32:32.872Z,36.48
2022-07-30T12:38:48.904Z,37.21
2022-07-30T12:44:51.187Z,36.04
2022-07-30T12:51:08.681Z,34.18
2022-07-30T12:57:10.918Z,37.40
2022-07-30T13:03:39.397Z,33.97
2022-07-30T13:09:41.628Z,30.26
2022-07-30T13:15:54.019Z,33.86
2022-07-30T13:21:56.391Z,36.18
2022-07-30T13:27:58.345Z,42.36
2022-07-30T13:34:02.229Z,48.71
2022-07-30T13:40:05.949Z,53.83
2022-07-30T13:46:08.239Z,62.31
2022-07-30T13:52:10.906Z,67.50
2022-07-30T13:58:13.512Z,69.96
2022-07-30T14:04:15.480Z,71.04
2022-07-30T14:10:17.853Z,74.09
2022-07-30T14:16:42.887Z,73.02
2022-07-30T14:22:42.118Z,74.95
2022-07-30T14:28:44.160Z,74.14
2022-07-30T14:34:49.235Z,75.17
2022-07-30T14:40:51.795Z,72.26
2022-07-30T14:46:53.888Z,70.73
2022-07-30T14:52:55.974Z,71.08
2022-07-30T14:58:58.686Z,72.39
2022-07-30T15:05:00.696Z,70.01
2022-07-30T15:11:05.310Z,69.40
2022-07-30T15:17:09.850Z,70.82
2022-07-30T15:23:13.587Z,73.10
2022-07-30T15:29:16.539Z,75.94
2022-07-30T15:35:18.575Z,78.28
2022-07-30T15:41:20.591Z,79.65
2022-07-30T15:47:23.071Z,82.71
2022-07-30T15:53:25.077Z,85.21
2022-07-30T15:59:27.843Z,84.77
2022-07-30T16:05:51.524Z,85.64
2022-07-30T16:11:52.906Z,89.40
2022-07-30T16:17:54.854Z,89.47
2022-07-30T16:23:56.847Z,89.28
2022-07-30T16:29:58.863Z,90.16
2022-07-30T16:36:00.848Z,90.96
2022-07-30T16:42:04.536Z,90.55
2022-07-30T16:48:07.032Z,89.77
2022-07-30T16:54:09.071Z,88.99
2022-07-30T17:00:12.833Z,89.56
2022-07-30T17:06:15.309Z,89.50
2022-07-30T17:12:17.301Z,89.20
2022-07-30T17:18:25.990Z,90.14
2022-07-30T17:24:27.973Z,91.43
2022-07-30T17:30:30.547Z,91.16
2022-07-30T17:36:32.611Z,91.81
2022-07-30T17:42:34.676Z,92.22
2022-07-30T17:48:36.705Z,91.70
2022-07-30T17:54:38.812Z,90.87
2022-07-30T18:00:40.854Z,90.33
2022-07-30T18:06:42.984Z,91.22
2022-07-30T18:12:48.607Z,91.15
2022-07-30T18:18:51.590Z,91.63
2022-07-30T18:24:53.577Z,92.66
2022-07-30T18:30:55.919Z,92.55
2022-07-30T18:36:58.370Z,92.64
2022-07-30T18:43:00.413Z,92.74
2022-07-30T18:49:20.874Z,93.43
2022-07-30T18:55:24.466Z,94.41
2022-07-30T19:01:26.524Z,94.03
2022-07-30T19:07:28.601Z,95.58
2022-07-30T19:13:50.032Z,95.66
2022-07-30T19:19:53.603Z,95.12
2022-07-30T19:25:55.748Z,95.34
2022-07-30T19:31:58.937Z,96.04
2022-07-30T19:38:01.349Z,96.62
2022-07-30T19:44:07.862Z,96.13
2022-07-30T19:50:11.947Z,96.68
2022-07-30T19:56:13.975Z,96.23
2022-07-30T20:02:16.584Z,97.51
2022-07-30T20:08:24.604Z,98.15
2022-07-30T20:14:26.986Z,98.18
2022-07-30T20:20:29.517Z,98.11
2022-07-30T20:26:31.768Z,98.88
2022-07-30T20:32:34.418Z,99.76
2022-07-30T20:38:37.658Z,100.00
2022-07-30T20:44:49.481Z,100.00
2022-07-30T20:50:52.929Z,100.00
2022-07-30T20:56:54.994Z,100.00
2022-07-30T21:02:56.960Z,100.00
2022-07-30T21:08:58.953Z,100.00
2022-07-30T21:15:00.906Z,100.00
2022-07-30T21:21:04.883Z,100.00
2022-07-30T21:27:07.791Z,100.00
2022-07-30T21:33:09.768Z,100.00
2022-07-30T21:39:13.910Z,100.00
2022-07-30T21:45:16.256Z,100.00
2022-07-30T21:51:18.226Z,100.00
2022-07-30T21:57:26.136Z,100.00
2022-07-30T22:04:04.033Z,100.00
2022-07-30T22:09:51.940Z,100.00
2022-07-30T22:15:55.011Z,100.00
2022-07-30T22:21:57.012Z,100.00
2022-07-30T22:27:59.076Z,100.00
2022-07-30T22:34:01.045Z,100.00
2022-07-30T22:40:04.869Z,100.00
2022-07-30T22:46:14.698Z,100.00
2022-07-30T22:52:22.277Z,100.00
2022-07-30T22:58:26.873Z,100.00
2022-07-30T23:04:29.268Z,100.00
2022-07-30T23:10:31.633Z,100.00
2022-07-30T23:16:34.417Z,100.00
2022-07-30T23:22:37.132Z,100.00
2022-07-30T23:28:39.293Z,100.00
2022-07-30T23:34:41.609Z,100.00
2022-07-30T23:40:43.651Z,100.00
2022-07-30T23:46:45.599Z,100.00
2022-07-30T23:52:47.891Z,100.00
2022-07-30T23:58:49.897Z,100.00
